sensor_id;sensor_type;location;lat;lon;timestamp;P1;durP1;ratioP1;P2;durP2;ratioP2
47089;SDS011;32840;52.516;13.294;2022-12-07T00:02:31;14.55;;;8.20;;
47089;SDS011;32840;52.516;13.294;2022-12-07T00:05:16;15.70;;;8.32;;
47089;SDS011;32840;52.516;13.294;2022-12-07T00:08:01;18.30;;;9.50;;
47089;SDS011;32840;52.516;13.294;2022-12-07T00:10:45;14.23;;;9.05;;
47089;SDS011;32840;52.516;13.294;2022-12-07T00:13:31;16.35;;;8.02;;
47089;SDS011;32840;52.516;13.294;2022-12-07T00:16:17;15.95;;;9.02;;
47089;SDS011;32840;52.516;13.294;2022-12-07T00:19:04;14.63;;;8.35;;
47089;SDS011;32840;52.516;13.294;2022-12-07T00:21:49;14.60;;;8.48;;
47089;SDS011;32840;52.516;13.294;2022-12-07T00:24:34;14.20;;;8.18;;
47089;SDS011;32840;52.516;13.294;2022-12-07T00:27:19;13.23;;;8.35;;
47089;SDS011;32840;52.516;13.294;2022-12-07T00:30:04;12.20;;;7.13;;
47089;SDS011;32840;52.516;13.294;2022-12-07T00:32:49;17.20;;;8.88;;
47089;SDS011;32840;52.516;13.294;2022-12-07T00:35:34;14.18;;;9.07;;
47089;SDS011;32840;52.516;13.294;2022-12-07T00:38:19;15.23;;;7.68;;
47089;SDS011;32840;52.516;13.294;2022-12-07T00:41:14;12.38;;;7.85;;
47089;SDS011;32840;52.516;13.294;2022-12-07T00:44:00;12.07;;;8.02;;
47089;SDS011;32840;52.516;13.294;2022-12-07T00:46:45;13.10;;;8.05;;
47089;SDS011;32840;52.516;13.294;2022-12-07T00:49:32;14.40;;;8.15;;
47089;SDS011;32840;52.516;13.294;2022-12-07T00:52:17;10.65;;;7.55;;
47089;SDS011;32840;52.516;13.294;2022-12-07T00:55:02;12.82;;;7.53;;
47089;SDS011;32840;52.516;13.294;2022-12-07T00:57:47;10.73;;;6.85;;
47089;SDS011;32840;52.516;13.294;2022-12-07T01:00:32;10.63;;;7.45;;
47089;SDS011;32840;52.516;13.294;2022-12-07T01:03:19;10.63;;;6.57;;
47089;SDS011;32840;52.516;13.294;2022-12-07T01:06:04;9.60;;;6.20;;
47089;SDS011;32840;52.516;13.294;2022-12-07T01:08:49;11.48;;;7.20;;
47089;SDS011;32840;52.516;13.294;2022-12-07T01:11:35;10.32;;;6.38;;
47089;SDS011;32840;52.516;13.294;2022-12-07T01:14:20;10.32;;;6.78;;
47089;SDS011;32840;52.516;13.294;2022-12-07T01:17:05;9.60;;;5.97;;
47089;SDS011;32840;52.516;13.294;2022-12-07T01:19:50;13.32;;;7.47;;
47089;SDS011;32840;52.516;13.294;2022-12-07T01:22:40;9.73;;;6.22;;
47089;SDS011;32840;52.516;13.294;2022-12-07T01:25:25;9.88;;;6.35;;
47089;SDS011;32840;52.516;13.294;2022-12-07T01:28:10;8.98;;;6.03;;
47089;SDS011;32840;52.516;13.294;2022-12-07T01:31:03;9.48;;;5.50;;
47089;SDS011;32840;52.516;13.294;2022-12-07T01:33:54;10.25;;;5.70;;
47089;SDS011;32840;52.516;13.294;2022-12-07T01:36:40;11.93;;;5.72;;
47089;SDS011;32840;52.516;13.294;2022-12-07T01:39:24;9.10;;;5.82;;
47089;SDS011;32840;52.516;13.294;2022-12-07T01:42:11;8.68;;;5.65;;
47089;SDS011;32840;52.516;13.294;2022-12-07T01:48:02;9.05;;;5.93;;
47089;SDS011;32840;52.516;13.294;2022-12-07T01:50:49;9.45;;;6.10;;
47089;SDS011;32840;52.516;13.294;2022-12-07T01:53:38;9.27;;;5.57;;
47089;SDS011;32840;52.516;13.294;2022-12-07T01:56:26;8.98;;;5.63;;
47089;SDS011;32840;52.516;13.294;2022-12-07T01:59:13;10.25;;;5.95;;
47089;SDS011;32840;52.516;13.294;2022-12-07T02:01:58;8.65;;;5.32;;
47089;SDS011;32840;52.516;13.294;2022-12-07T02:04:47;8.77;;;5.78;;
47089;SDS011;32840;52.516;13.294;2022-12-07T02:07:36;8.55;;;5.18;;
47089;SDS011;32840;52.516;13.294;2022-12-07T02:10:23;8.73;;;5.45;;
47089;SDS011;32840;52.516;13.294;2022-12-07T02:13:16;7.65;;;5.20;;
47089;SDS011;32840;52.516;13.294;2022-12-07T02:16:21;9.60;;;5.35;;
47089;SDS011;32840;52.516;13.294;2022-12-07T02:25:22;8.77;;;5.57;;
47089;SDS011;32840;52.516;13.294;2022-12-07T02:31:20;7.90;;;5.18;;
47089;SDS011;32840;52.516;13.294;2022-12-07T02:34:11;9.88;;;6.07;;
47089;SDS011;32840;52.516;13.294;2022-12-07T02:37:04;12.60;;;6.80;;
47089;SDS011;32840;52.516;13.294;2022-12-07T02:40:02;9.60;;;5.90;;
47089;SDS011;32840;52.516;13.294;2022-12-07T02:42:56;10.95;;;5.95;;
47089;SDS011;32840;52.516;13.294;2022-12-07T02:45:51;11.27;;;6.47;;
47089;SDS011;32840;52.516;13.294;2022-12-07T02:48:38;16.58;;;7.97;;
47089;SDS011;32840;52.516;13.294;2022-12-07T02:51:25;12.80;;;6.40;;
47089;SDS011;32840;52.516;13.294;2022-12-07T02:54:14;12.35;;;7.10;;
47089;SDS011;32840;52.516;13.294;2022-12-07T02:57:11;11.73;;;6.80;;
47089;SDS011;32840;52.516;13.294;2022-12-07T03:00:09;12.93;;;7.57;;
47089;SDS011;32840;52.516;13.294;2022-12-07T03:03:00;14.52;;;8.05;;
47089;SDS011;32840;52.516;13.294;2022-12-07T03:05:54;12.38;;;7.68;;
47089;SDS011;32840;52.516;13.294;2022-12-07T03:08:50;12.70;;;7.55;;
47089;SDS011;32840;52.516;13.294;2022-12-07T03:11:50;12.82;;;7.72;;
47089;SDS011;32840;52.516;13.294;2022-12-07T03:18:04;15.50;;;7.95;;
47089;SDS011;32840;52.516;13.294;2022-12-07T03:20:52;14.98;;;8.30;;
47089;SDS011;32840;52.516;13.294;2022-12-07T03:23:40;13.98;;;8.63;;
47089;SDS011;32840;52.516;13.294;2022-12-07T03:26:37;15.50;;;8.93;;
47089;SDS011;32840;52.516;13.294;2022-12-07T03:29:31;17.50;;;9.48;;
47089;SDS011;32840;52.516;13.294;2022-12-07T03:32:43;18.30;;;9.60;;
47089;SDS011;32840;52.516;13.294;2022-12-07T03:35:34;17.20;;;10.65;;
47089;SDS011;32840;52.516;13.294;2022-12-07T03:38:31;17.40;;;9.52;;
47089;SDS011;32840;52.516;13.294;2022-12-07T03:41:25;17.08;;;9.38;;
47089;SDS011;32840;52.516;13.294;2022-12-07T03:44:13;15.38;;;9.18;;
47089;SDS011;32840;52.516;13.294;2022-12-07T03:47:04;16.58;;;9.77;;
47089;SDS011;32840;52.516;13.294;2022-12-07T03:49:55;17.60;;;9.88;;
47089;SDS011;32840;52.516;13.294;2022-12-07T03:52:55;17.13;;;10.18;;
47089;SDS011;32840;52.516;13.294;2022-12-07T03:55:44;18.30;;;10.73;;
47089;SDS011;32840;52.516;13.294;2022-12-07T03:58:31;18.70;;;10.07;;
47089;SDS011;32840;52.516;13.294;2022-12-07T04:01:17;20.55;;;11.23;;
47089;SDS011;32840;52.516;13.294;2022-12-07T04:04:02;20.35;;;10.63;;
47089;SDS011;32840;52.516;13.294;2022-12-07T04:06:47;19.23;;;10.73;;
47089;SDS011;32840;52.516;13.294;2022-12-07T04:09:32;15.15;;;9.13;;
47089;SDS011;32840;52.516;13.294;2022-12-07T04:12:16;16.45;;;9.90;;
47089;SDS011;32840;52.516;13.294;2022-12-07T04:15:02;19.45;;;11.00;;
47089;SDS011;32840;52.516;13.294;2022-12-07T04:17:47;22.05;;;11.60;;
47089;SDS011;32840;52.516;13.294;2022-12-07T04:20:32;23.10;;;12.23;;
47089;SDS011;32840;52.516;13.294;2022-12-07T04:23:17;19.05;;;11.23;;
47089;SDS011;32840;52.516;13.294;2022-12-07T04:26:02;21.80;;;12.23;;
47089;SDS011;32840;52.516;13.294;2022-12-07T04:28:47;22.08;;;12.38;;
47089;SDS011;32840;52.516;13.294;2022-12-07T04:31:33;19.10;;;11.75;;
47089;SDS011;32840;52.516;13.294;2022-12-07T04:34:18;22.80;;;11.43;;
47089;SDS011;32840;52.516;13.294;2022-12-07T04:37:04;22.58;;;12.35;;
47089;SDS011;32840;52.516;13.294;2022-12-07T04:39:49;22.58;;;12.70;;
47089;SDS011;32840;52.516;13.294;2022-12-07T04:42:34;23.23;;;13.32;;
47089;SDS011;32840;52.516;13.294;2022-12-07T04:45:19;26.67;;;13.77;;
47089;SDS011;32840;52.516;13.294;2022-12-07T04:48:04;28.75;;;14.90;;
47089;SDS011;32840;52.516;13.294;2022-12-07T04:50:49;24.80;;;12.48;;
47089;SDS011;32840;52.516;13.294;2022-12-07T04:53:34;23.25;;;13.68;;
47089;SDS011;32840;52.516;13.294;2022-12-07T04:56:19;25.58;;;15.18;;
47089;SDS011;32840;52.516;13.294;2022-12-07T04:59:05;27.20;;;15.70;;
47089;SDS011;32840;52.516;13.294;2022-12-07T05:01:50;26.25;;;13.75;;
47089;SDS011;32840;52.516;13.294;2022-12-07T05:04:35;25.80;;;14.57;;
47089;SDS011;32840;52.516;13.294;2022-12-07T05:07:20;24.33;;;15.07;;
47089;SDS011;32840;52.516;13.294;2022-12-07T05:10:05;27.60;;;15.10;;
47089;SDS011;32840;52.516;13.294;2022-12-07T05:12:51;31.13;;;16.70;;
47089;SDS011;32840;52.516;13.294;2022-12-07T05:15:36;28.88;;;16.25;;
47089;SDS011;32840;52.516;13.294;2022-12-07T05:18:21;34.22;;;16.88;;
47089;SDS011;32840;52.516;13.294;2022-12-07T05:21:06;28.67;;;16.02;;
47089;SDS011;32840;52.516;13.294;2022-12-07T05:23:51;34.55;;;18.17;;
47089;SDS011;32840;52.516;13.294;2022-12-07T05:26:36;27.33;;;16.17;;
47089;SDS011;32840;52.516;13.294;2022-12-07T05:29:21;25.40;;;13.18;;
47089;SDS011;32840;52.516;13.294;2022-12-07T05:32:06;32.08;;;17.27;;
47089;SDS011;32840;52.516;13.294;2022-12-07T05:34:51;31.88;;;16.80;;
47089;SDS011;32840;52.516;13.294;2022-12-07T05:37:39;28.33;;;15.50;;
47089;SDS011;32840;52.516;13.294;2022-12-07T05:40:24;29.23;;;16.58;;
47089;SDS011;32840;52.516;13.294;2022-12-07T05:43:09;32.03;;;16.27;;
47089;SDS011;32840;52.516;13.294;2022-12-07T05:45:54;33.17;;;16.95;;
47089;SDS011;32840;52.516;13.294;2022-12-07T05:48:39;32.17;;;16.17;;
47089;SDS011;32840;52.516;13.294;2022-12-07T05:51:24;33.75;;;17.08;;
47089;SDS011;32840;52.516;13.294;2022-12-07T05:54:09;30.17;;;16.90;;
47089;SDS011;32840;52.516;13.294;2022-12-07T05:56:53;30.00;;;17.55;;
47089;SDS011;32840;52.516;13.294;2022-12-07T05:59:39;37.60;;;20.73;;
47089;SDS011;32840;52.516;13.294;2022-12-07T06:02:23;31.27;;;17.10;;
47089;SDS011;32840;52.516;13.294;2022-12-07T06:05:09;34.63;;;16.10;;
47089;SDS011;32840;52.516;13.294;2022-12-07T06:07:54;33.60;;;18.65;;
47089;SDS011;32840;52.516;13.294;2022-12-07T06:10:41;31.30;;;17.15;;
47089;SDS011;32840;52.516;13.294;2022-12-07T06:13:26;33.90;;;16.85;;
47089;SDS011;32840;52.516;13.294;2022-12-07T06:16:11;31.98;;;17.60;;
47089;SDS011;32840;52.516;13.294;2022-12-07T06:18:55;34.75;;;16.23;;
47089;SDS011;32840;52.516;13.294;2022-12-07T06:21:41;35.80;;;17.67;;
47089;SDS011;32840;52.516;13.294;2022-12-07T06:24:26;29.73;;;14.07;;
47089;SDS011;32840;52.516;13.294;2022-12-07T06:27:11;30.27;;;17.27;;
47089;SDS011;32840;52.516;13.294;2022-12-07T06:29:56;36.00;;;18.10;;
47089;SDS011;32840;52.516;13.294;2022-12-07T06:32:41;30.75;;;16.50;;
47089;SDS011;32840;52.516;13.294;2022-12-07T06:35:26;34.72;;;17.70;;
47089;SDS011;32840;52.516;13.294;2022-12-07T06:38:11;32.80;;;17.15;;
47089;SDS011;32840;52.516;13.294;2022-12-07T06:40:56;34.70;;;18.95;;
47089;SDS011;32840;52.516;13.294;2022-12-07T06:43:42;34.75;;;17.90;;
47089;SDS011;32840;52.516;13.294;2022-12-07T06:46:27;33.42;;;18.10;;
47089;SDS011;32840;52.516;13.294;2022-12-07T06:49:12;31.25;;;17.20;;
47089;SDS011;32840;52.516;13.294;2022-12-07T06:51:57;32.25;;;18.17;;
47089;SDS011;32840;52.516;13.294;2022-12-07T06:54:43;34.75;;;17.90;;
47089;SDS011;32840;52.516;13.294;2022-12-07T06:57:29;31.75;;;16.05;;
47089;SDS011;32840;52.516;13.294;2022-12-07T07:00:14;31.00;;;17.48;;
47089;SDS011;32840;52.516;13.294;2022-12-07T07:03:00;34.20;;;18.20;;
47089;SDS011;32840;52.516;13.294;2022-12-07T07:05:46;37.75;;;18.60;;
47089;SDS011;32840;52.516;13.294;2022-12-07T07:08:31;35.97;;;18.95;;
47089;SDS011;32840;52.516;13.294;2022-12-07T07:11:16;31.33;;;18.05;;
47089;SDS011;32840;52.516;13.294;2022-12-07T07:14:01;33.40;;;18.73;;
47089;SDS011;32840;52.516;13.294;2022-12-07T07:16:46;33.20;;;18.35;;
47089;SDS011;32840;52.516;13.294;2022-12-07T07:19:32;30.98;;;17.25;;
47089;SDS011;32840;52.516;13.294;2022-12-07T07:22:17;31.63;;;17.00;;
47089;SDS011;32840;52.516;13.294;2022-12-07T07:25:02;35.40;;;17.25;;
47089;SDS011;32840;52.516;13.294;2022-12-07T07:27:48;31.25;;;17.73;;
47089;SDS011;32840;52.516;13.294;2022-12-07T07:30:32;33.20;;;17.77;;
47089;SDS011;32840;52.516;13.294;2022-12-07T07:33:17;30.27;;;17.58;;
47089;SDS011;32840;52.516;13.294;2022-12-07T07:36:02;27.30;;;15.35;;
47089;SDS011;32840;52.516;13.294;2022-12-07T07:38:47;29.50;;;14.70;;
47089;SDS011;32840;52.516;13.294;2022-12-07T07:41:33;28.73;;;15.02;;
47089;SDS011;32840;52.516;13.294;2022-12-07T07:44:18;24.75;;;13.15;;
47089;SDS011;32840;52.516;13.294;2022-12-07T07:47:06;31.08;;;16.88;;
47089;SDS011;32840;52.516;13.294;2022-12-07T07:49:51;20.75;;;12.63;;
47089;SDS011;32840;52.516;13.294;2022-12-07T07:52:37;23.35;;;12.05;;
47089;SDS011;32840;52.516;13.294;2022-12-07T07:55:22;23.58;;;12.23;;
47089;SDS011;32840;52.516;13.294;2022-12-07T07:58:07;21.77;;;12.05;;
47089;SDS011;32840;52.516;13.294;2022-12-07T08:00:52;19.08;;;9.73;;
47089;SDS011;32840;52.516;13.294;2022-12-07T08:03:37;24.45;;;11.05;;
47089;SDS011;32840;52.516;13.294;2022-12-07T08:06:22;18.45;;;9.73;;
47089;SDS011;32840;52.516;13.294;2022-12-07T08:09:07;19.48;;;10.32;;
47089;SDS011;32840;52.516;13.294;2022-12-07T08:11:52;17.90;;;9.60;;
47089;SDS011;32840;52.516;13.294;2022-12-07T08:14:37;15.02;;;9.00;;
47089;SDS011;32840;52.516;13.294;2022-12-07T08:17:22;15.00;;;8.50;;
47089;SDS011;32840;52.516;13.294;2022-12-07T08:20:07;15.38;;;7.88;;
47089;SDS011;32840;52.516;13.294;2022-12-07T08:22:52;12.35;;;7.43;;
47089;SDS011;32840;52.516;13.294;2022-12-07T08:25:37;13.05;;;7.15;;
47089;SDS011;32840;52.516;13.294;2022-12-07T08:28:23;11.68;;;6.28;;
47089;SDS011;32840;52.516;13.294;2022-12-07T08:31:10;13.82;;;6.10;;
47089;SDS011;32840;52.516;13.294;2022-12-07T08:33:56;9.70;;;5.65;;
47089;SDS011;32840;52.516;13.294;2022-12-07T08:36:41;10.13;;;5.57;;
47089;SDS011;32840;52.516;13.294;2022-12-07T08:39:26;11.15;;;4.35;;
47089;SDS011;32840;52.516;13.294;2022-12-07T08:42:11;6.43;;;4.03;;
47089;SDS011;32840;52.516;13.294;2022-12-07T08:44:56;7.47;;;3.90;;
47089;SDS011;32840;52.516;13.294;2022-12-07T08:47:42;7.35;;;3.70;;
47089;SDS011;32840;52.516;13.294;2022-12-07T08:50:32;12.45;;;6.10;;
47089;SDS011;32840;52.516;13.294;2022-12-07T08:53:18;6.53;;;3.15;;
47089;SDS011;32840;52.516;13.294;2022-12-07T08:56:04;6.88;;;3.45;;
47089;SDS011;32840;52.516;13.294;2022-12-07T08:58:50;3.88;;;2.72;;
47089;SDS011;32840;52.516;13.294;2022-12-07T09:01:36;6.18;;;2.60;;
47089;SDS011;32840;52.516;13.294;2022-12-07T09:04:21;4.43;;;2.40;;
47089;SDS011;32840;52.516;13.294;2022-12-07T09:07:05;4.22;;;2.42;;
47089;SDS011;32840;52.516;13.294;2022-12-07T09:09:50;3.35;;;1.95;;
47089;SDS011;32840;52.516;13.294;2022-12-07T09:12:37;4.07;;;2.33;;
47089;SDS011;32840;52.516;13.294;2022-12-07T09:15:21;4.07;;;2.60;;
47089;SDS011;32840;52.516;13.294;2022-12-07T09:18:06;5.32;;;3.05;;
47089;SDS011;32840;52.516;13.294;2022-12-07T09:20:51;5.78;;;2.67;;
47089;SDS011;32840;52.516;13.294;2022-12-07T09:23:36;6.72;;;3.45;;
47089;SDS011;32840;52.516;13.294;2022-12-07T09:26:21;5.72;;;3.03;;
47089;SDS011;32840;52.516;13.294;2022-12-07T09:29:07;7.55;;;4.60;;
47089;SDS011;32840;52.516;13.294;2022-12-07T09:31:52;4.65;;;3.20;;
47089;SDS011;32840;52.516;13.294;2022-12-07T09:34:37;4.53;;;2.97;;
47089;SDS011;32840;52.516;13.294;2022-12-07T09:37:22;4.78;;;2.80;;
47089;SDS011;32840;52.516;13.294;2022-12-07T09:40:07;4.90;;;3.22;;
47089;SDS011;32840;52.516;13.294;2022-12-07T09:42:53;7.60;;;3.80;;
47089;SDS011;32840;52.516;13.294;2022-12-07T09:45:39;4.07;;;2.88;;
47089;SDS011;32840;52.516;13.294;2022-12-07T09:48:31;4.10;;;2.85;;
47089;SDS011;32840;52.516;13.294;2022-12-07T09:51:21;6.43;;;3.53;;
47089;SDS011;32840;52.516;13.294;2022-12-07T09:54:07;8.35;;;3.45;;
47089;SDS011;32840;52.516;13.294;2022-12-07T09:56:56;7.57;;;3.33;;
47089;SDS011;32840;52.516;13.294;2022-12-07T09:59:41;4.95;;;3.58;;
47089;SDS011;32840;52.516;13.294;2022-12-07T10:02:37;5.25;;;3.17;;
47089;SDS011;32840;52.516;13.294;2022-12-07T10:05:27;5.35;;;3.63;;
47089;SDS011;32840;52.516;13.294;2022-12-07T10:08:39;7.95;;;3.80;;
47089;SDS011;32840;52.516;13.294;2022-12-07T10:11:25;6.55;;;3.45;;
47089;SDS011;32840;52.516;13.294;2022-12-07T10:14:12;9.27;;;4.07;;
47089;SDS011;32840;52.516;13.294;2022-12-07T10:16:59;5.78;;;3.85;;
47089;SDS011;32840;52.516;13.294;2022-12-07T10:19:44;7.20;;;4.43;;
47089;SDS011;32840;52.516;13.294;2022-12-07T10:22:29;11.68;;;3.80;;
47089;SDS011;32840;52.516;13.294;2022-12-07T10:25:19;5.78;;;3.10;;
47089;SDS011;32840;52.516;13.294;2022-12-07T10:30:57;6.05;;;2.70;;
47089;SDS011;32840;52.516;13.294;2022-12-07T10:36:38;6.97;;;3.47;;
47089;SDS011;32840;52.516;13.294;2022-12-07T10:39:23;5.07;;;3.10;;
47089;SDS011;32840;52.516;13.294;2022-12-07T10:42:27;8.98;;;4.57;;
47089;SDS011;32840;52.516;13.294;2022-12-07T10:45:14;6.20;;;3.88;;
47089;SDS011;32840;52.516;13.294;2022-12-07T10:54:39;7.05;;;4.45;;
47089;SDS011;32840;52.516;13.294;2022-12-07T10:57:40;8.50;;;4.82;;
47089;SDS011;32840;52.516;13.294;2022-12-07T11:01:03;9.50;;;4.40;;
47089;SDS011;32840;52.516;13.294;2022-12-07T11:07:23;12.40;;;5.55;;
47089;SDS011;32840;52.516;13.294;2022-12-07T11:10:22;9.23;;;5.25;;
47089;SDS011;32840;52.516;13.294;2022-12-07T11:19:46;11.85;;;4.78;;
47089;SDS011;32840;52.516;13.294;2022-12-07T11:23:03;8.60;;;4.25;;
47089;SDS011;32840;52.516;13.294;2022-12-07T11:26:29;10.82;;;5.70;;
47089;SDS011;32840;52.516;13.294;2022-12-07T11:29:34;10.90;;;4.90;;
47089;SDS011;32840;52.516;13.294;2022-12-07T11:35:37;7.90;;;3.53;;
47089;SDS011;32840;52.516;13.294;2022-12-07T11:38:33;14.05;;;4.85;;
47089;SDS011;32840;52.516;13.294;2022-12-07T11:41:34;6.82;;;4.55;;
47089;SDS011;32840;52.516;13.294;2022-12-07T11:44:44;13.52;;;5.68;;
47089;SDS011;32840;52.516;13.294;2022-12-07T11:47:45;10.10;;;5.05;;
47089;SDS011;32840;52.516;13.294;2022-12-07T11:50:33;9.30;;;4.20;;
47089;SDS011;32840;52.516;13.294;2022-12-07T11:53:25;11.43;;;5.47;;
47089;SDS011;32840;52.516;13.294;2022-12-07T11:59:01;8.82;;;4.43;;
47089;SDS011;32840;52.516;13.294;2022-12-07T12:02:18;11.15;;;4.72;;
47089;SDS011;32840;52.516;13.294;2022-12-07T12:05:18;8.60;;;3.33;;
47089;SDS011;32840;52.516;13.294;2022-12-07T12:08:13;10.98;;;3.78;;
47089;SDS011;32840;52.516;13.294;2022-12-07T12:11:09;8.18;;;3.60;;
47089;SDS011;32840;52.516;13.294;2022-12-07T12:20:28;5.03;;;3.40;;
47089;SDS011;32840;52.516;13.294;2022-12-07T12:23:21;9.13;;;3.25;;
47089;SDS011;32840;52.516;13.294;2022-12-07T12:26:13;6.95;;;3.35;;
47089;SDS011;32840;52.516;13.294;2022-12-07T12:29:02;6.55;;;2.80;;
47089;SDS011;32840;52.516;13.294;2022-12-07T12:32:17;8.75;;;3.25;;
47089;SDS011;32840;52.516;13.294;2022-12-07T12:41:11;8.43;;;2.83;;
47089;SDS011;32840;52.516;13.294;2022-12-07T12:50:27;8.43;;;3.75;;
47089;SDS011;32840;52.516;13.294;2022-12-07T12:53:24;6.15;;;2.83;;
47089;SDS011;32840;52.516;13.294;2022-12-07T12:56:14;12.05;;;3.60;;
47089;SDS011;32840;52.516;13.294;2022-12-07T12:59:28;6.97;;;3.17;;
47089;SDS011;32840;52.516;13.294;2022-12-07T13:05:22;6.32;;;2.70;;
47089;SDS011;32840;52.516;13.294;2022-12-07T13:08:18;10.88;;;3.65;;
47089;SDS011;32840;52.516;13.294;2022-12-07T13:11:18;7.97;;;3.15;;
47089;SDS011;32840;52.516;13.294;2022-12-07T13:29:18;8.63;;;2.83;;
47089;SDS011;32840;52.516;13.294;2022-12-07T13:32:22;7.00;;;2.78;;
47089;SDS011;32840;52.516;13.294;2022-12-07T13:35:30;8.45;;;3.10;;
47089;SDS011;32840;52.516;13.294;2022-12-07T13:38:25;6.72;;;2.63;;
47089;SDS011;32840;52.516;13.294;2022-12-07T13:41:15;9.07;;;3.65;;
47089;SDS011;32840;52.516;13.294;2022-12-07T13:44:11;9.85;;;3.25;;
47089;SDS011;32840;52.516;13.294;2022-12-07T13:49:53;7.95;;;2.45;;
47089;SDS011;32840;52.516;13.294;2022-12-07T13:52:43;9.40;;;2.42;;
47089;SDS011;32840;52.516;13.294;2022-12-07T13:55:29;16.77;;;6.60;;
47089;SDS011;32840;52.516;13.294;2022-12-07T13:58:14;9.73;;;3.55;;
47089;SDS011;32840;52.516;13.294;2022-12-07T14:00:59;9.23;;;3.42;;
47089;SDS011;32840;52.516;13.294;2022-12-07T14:03:44;13.13;;;5.60;;
47089;SDS011;32840;52.516;13.294;2022-12-07T14:06:29;7.80;;;3.45;;
47089;SDS011;32840;52.516;13.294;2022-12-07T14:09:17;5.95;;;2.40;;
47089;SDS011;32840;52.516;13.294;2022-12-07T14:12:05;8.02;;;2.72;;
47089;SDS011;32840;52.516;13.294;2022-12-07T14:14:51;14.70;;;3.67;;
47089;SDS011;32840;52.516;13.294;2022-12-07T14:17:36;6.70;;;3.13;;
47089;SDS011;32840;52.516;13.294;2022-12-07T14:23:24;6.32;;;3.05;;
47089;SDS011;32840;52.516;13.294;2022-12-07T14:26:12;6.20;;;3.03;;
47089;SDS011;32840;52.516;13.294;2022-12-07T14:32:21;13.00;;;4.93;;
47089;SDS011;32840;52.516;13.294;2022-12-07T14:35:15;8.45;;;3.70;;
47089;SDS011;32840;52.516;13.294;2022-12-07T14:38:01;8.55;;;2.97;;
47089;SDS011;32840;52.516;13.294;2022-12-07T14:40:45;8.48;;;3.72;;
47089;SDS011;32840;52.516;13.294;2022-12-07T14:43:31;10.23;;;3.45;;
47089;SDS011;32840;52.516;13.294;2022-12-07T14:46:15;6.82;;;3.28;;
47089;SDS011;32840;52.516;13.294;2022-12-07T14:49:01;8.80;;;2.85;;
47089;SDS011;32840;52.516;13.294;2022-12-07T14:51:46;7.57;;;2.60;;
47089;SDS011;32840;52.516;13.294;2022-12-07T14:54:31;10.85;;;2.65;;
47089;SDS011;32840;52.516;13.294;2022-12-07T14:57:17;7.03;;;2.60;;
47089;SDS011;32840;52.516;13.294;2022-12-07T15:00:03;7.20;;;2.28;;
47089;SDS011;32840;52.516;13.294;2022-12-07T15:02:48;10.05;;;2.83;;
47089;SDS011;32840;52.516;13.294;2022-12-07T15:05:34;12.40;;;2.80;;
47089;SDS011;32840;52.516;13.294;2022-12-07T15:08:20;13.02;;;2.83;;
47089;SDS011;32840;52.516;13.294;2022-12-07T15:11:05;8.18;;;2.28;;
47089;SDS011;32840;52.516;13.294;2022-12-07T15:13:50;14.38;;;2.53;;
47089;SDS011;32840;52.516;13.294;2022-12-07T15:16:54;9.02;;;2.53;;
47089;SDS011;32840;52.516;13.294;2022-12-07T15:19:39;10.77;;;2.67;;
47089;SDS011;32840;52.516;13.294;2022-12-07T15:22:24;11.27;;;2.53;;
47089;SDS011;32840;52.516;13.294;2022-12-07T15:25:12;9.30;;;2.75;;
47089;SDS011;32840;52.516;13.294;2022-12-07T15:27:58;7.85;;;2.40;;
47089;SDS011;32840;52.516;13.294;2022-12-07T15:30:43;12.02;;;2.35;;
47089;SDS011;32840;52.516;13.294;2022-12-07T15:33:28;6.35;;;1.95;;
47089;SDS011;32840;52.516;13.294;2022-12-07T15:36:22;6.10;;;2.42;;
47089;SDS011;32840;52.516;13.294;2022-12-07T15:39:08;11.77;;;2.38;;
47089;SDS011;32840;52.516;13.294;2022-12-07T15:41:53;9.65;;;2.45;;
47089;SDS011;32840;52.516;13.294;2022-12-07T15:44:38;7.00;;;2.30;;
47089;SDS011;32840;52.516;13.294;2022-12-07T15:47:42;8.30;;;2.80;;
47089;SDS011;32840;52.516;13.294;2022-12-07T15:50:31;9.20;;;3.00;;
47089;SDS011;32840;52.516;13.294;2022-12-07T15:53:16;10.35;;;2.33;;
47089;SDS011;32840;52.516;13.294;2022-12-07T15:56:01;16.17;;;7.40;;
47089;SDS011;32840;52.516;13.294;2022-12-07T15:58:50;14.35;;;7.05;;
47089;SDS011;32840;52.516;13.294;2022-12-07T16:01:35;9.23;;;2.85;;
47089;SDS011;32840;52.516;13.294;2022-12-07T16:04:20;10.63;;;3.38;;
47089;SDS011;32840;52.516;13.294;2022-12-07T16:07:05;11.60;;;4.97;;
47089;SDS011;32840;52.516;13.294;2022-12-07T16:09:50;11.57;;;2.50;;
47089;SDS011;32840;52.516;13.294;2022-12-07T16:12:35;7.88;;;2.80;;
47089;SDS011;32840;52.516;13.294;2022-12-07T16:15:19;12.07;;;4.63;;
47089;SDS011;32840;52.516;13.294;2022-12-07T16:18:05;8.48;;;3.15;;
47089;SDS011;32840;52.516;13.294;2022-12-07T16:20:51;9.68;;;3.40;;
47089;SDS011;32840;52.516;13.294;2022-12-07T16:23:35;15.07;;;4.78;;
47089;SDS011;32840;52.516;13.294;2022-12-07T16:26:21;7.60;;;3.40;;
47089;SDS011;32840;52.516;13.294;2022-12-07T16:29:06;9.82;;;2.63;;
47089;SDS011;32840;52.516;13.294;2022-12-07T16:31:51;10.13;;;4.60;;
47089;SDS011;32840;52.516;13.294;2022-12-07T16:34:36;8.77;;;2.78;;
47089;SDS011;32840;52.516;13.294;2022-12-07T16:37:21;11.85;;;2.88;;
47089;SDS011;32840;52.516;13.294;2022-12-07T16:40:06;7.13;;;2.20;;
47089;SDS011;32840;52.516;13.294;2022-12-07T16:42:51;8.00;;;2.88;;
47089;SDS011;32840;52.516;13.294;2022-12-07T16:45:37;10.43;;;3.00;;
47089;SDS011;32840;52.516;13.294;2022-12-07T16:48:22;8.07;;;2.22;;
47089;SDS011;32840;52.516;13.294;2022-12-07T16:51:08;7.90;;;2.28;;
47089;SDS011;32840;52.516;13.294;2022-12-07T16:53:56;13.13;;;3.17;;
47089;SDS011;32840;52.516;13.294;2022-12-07T16:56:41;8.80;;;3.33;;
47089;SDS011;32840;52.516;13.294;2022-12-07T16:59:25;9.00;;;2.65;;
47089;SDS011;32840;52.516;13.294;2022-12-07T17:02:11;8.15;;;2.30;;
47089;SDS011;32840;52.516;13.294;2022-12-07T17:04:56;12.27;;;3.00;;
47089;SDS011;32840;52.516;13.294;2022-12-07T17:07:41;8.60;;;3.17;;
47089;SDS011;32840;52.516;13.294;2022-12-07T17:10:26;12.45;;;3.35;;
47089;SDS011;32840;52.516;13.294;2022-12-07T17:13:12;7.93;;;2.88;;
47089;SDS011;32840;52.516;13.294;2022-12-07T17:16:15;6.88;;;2.35;;
47089;SDS011;32840;52.516;13.294;2022-12-07T17:19:03;6.18;;;2.35;;
47089;SDS011;32840;52.516;13.294;2022-12-07T17:21:52;10.52;;;2.83;;
47089;SDS011;32840;52.516;13.294;2022-12-07T17:24:37;5.28;;;2.85;;
47089;SDS011;32840;52.516;13.294;2022-12-07T17:27:26;17.92;;;4.38;;
47089;SDS011;32840;52.516;13.294;2022-12-07T17:30:12;9.82;;;4.40;;
47089;SDS011;32840;52.516;13.294;2022-12-07T17:32:58;9.48;;;2.88;;
47089;SDS011;32840;52.516;13.294;2022-12-07T17:35:43;7.07;;;2.60;;
47089;SDS011;32840;52.516;13.294;2022-12-07T17:38:28;8.57;;;2.60;;
47089;SDS011;32840;52.516;13.294;2022-12-07T17:44:22;7.78;;;2.70;;
47089;SDS011;32840;52.516;13.294;2022-12-07T17:47:15;8.07;;;2.85;;
47089;SDS011;32840;52.516;13.294;2022-12-07T17:50:02;9.07;;;3.05;;
47089;SDS011;32840;52.516;13.294;2022-12-07T17:52:49;9.77;;;3.97;;
47089;SDS011;32840;52.516;13.294;2022-12-07T17:55:53;7.35;;;3.03;;
47089;SDS011;32840;52.516;13.294;2022-12-07T17:58:39;8.02;;;3.08;;
47089;SDS011;32840;52.516;13.294;2022-12-07T18:01:24;10.50;;;3.58;;